sensor_id;sensor_type;location;lat;lon;timestamp;P1;durP1;ratioP1;P2;durP2;ratioP2
9522;SDS011;63165;43.016;25.784;2023-04-01T00:00:08;84.88;;;28.45;;
9522;SDS011;63165;43.016;25.784;2023-04-01T00:02:36;73.97;;;24.45;;
9522;SDS011;63165;43.016;25.784;2023-04-01T00:05:04;52.33;;;19.38;;
9522;SDS011;63165;43.016;25.784;2023-04-01T00:07:32;52.33;;;19.60;;
9522;SDS011;63165;43.016;25.784;2023-04-01T00:09:59;76.10;;;25.23;;
9522;SDS011;63165;43.016;25.784;2023-04-01T00:12:27;42.00;;;16.88;;
9522;SDS011;63165;43.016;25.784;2023-04-01T00:14:54;55.38;;;19.90;;
9522;SDS011;63165;43.016;25.784;2023-04-01T00:17:23;41.83;;;13.27;;
9522;SDS011;63165;43.016;25.784;2023-04-01T00:19:51;41.85;;;14.20;;
9522;SDS011;63165;43.016;25.784;2023-04-01T00:22:18;33.83;;;11.35;;
9522;SDS011;63165;43.016;25.784;2023-04-01T00:24:45;36.95;;;11.93;;
9522;SDS011;63165;43.016;25.784;2023-04-01T00:27:13;31.00;;;10.98;;
9522;SDS011;63165;43.016;25.784;2023-04-01T00:29:41;28.10;;;10.38;;
9522;SDS011;63165;43.016;25.784;2023-04-01T00:32:08;149.15;;;44.38;;
9522;SDS011;63165;43.016;25.784;2023-04-01T00:34:38;69.25;;;22.58;;
9522;SDS011;63165;43.016;25.784;2023-04-01T00:37:05;99.40;;;30.13;;
9522;SDS011;63165;43.016;25.784;2023-04-01T00:39:33;52.15;;;19.23;;
9522;SDS011;63165;43.016;25.784;2023-04-01T00:42:01;53.60;;;18.02;;
9522;SDS011;63165;43.016;25.784;2023-04-01T00:44:30;144.93;;;42.22;;
9522;SDS011;63165;43.016;25.784;2023-04-01T00:46:59;20.27;;;8.40;;
9522;SDS011;63165;43.016;25.784;2023-04-01T00:49:29;33.22;;;10.85;;
9522;SDS011;63165;43.016;25.784;2023-04-01T00:52:01;13.48;;;5.35;;
9522;SDS011;63165;43.016;25.784;2023-04-01T00:54:31;28.88;;;10.65;;
9522;SDS011;63165;43.016;25.784;2023-04-01T00:56:59;81.97;;;24.42;;
9522;SDS011;63165;43.016;25.784;2023-04-01T00:59:29;67.28;;;21.35;;
9522;SDS011;63165;43.016;25.784;2023-04-01T01:01:58;21.15;;;8.15;;
9522;SDS011;63165;43.016;25.784;2023-04-01T01:04:27;65.32;;;18.95;;
9522;SDS011;63165;43.016;25.784;2023-04-01T01:06:58;14.15;;;6.53;;
9522;SDS011;63165;43.016;25.784;2023-04-01T01:09:42;34.13;;;12.93;;
9522;SDS011;63165;43.016;25.784;2023-04-01T01:12:17;25.35;;;9.65;;
9522;SDS011;63165;43.016;25.784;2023-04-01T01:14:50;56.78;;;19.15;;
9522;SDS011;63165;43.016;25.784;2023-04-01T01:17:24;64.30;;;20.63;;
9522;SDS011;63165;43.016;25.784;2023-04-01T01:26:28;36.45;;;12.00;;
9522;SDS011;63165;43.016;25.784;2023-04-01T01:29:11;24.23;;;9.70;;
9522;SDS011;63165;43.016;25.784;2023-04-01T01:31:57;31.75;;;9.57;;
9522;SDS011;63165;43.016;25.784;2023-04-01T01:34:33;26.00;;;7.75;;
9522;SDS011;63165;43.016;25.784;2023-04-01T01:37:09;86.20;;;26.85;;
9522;SDS011;63165;43.016;25.784;2023-04-01T01:39:39;31.53;;;10.80;;
9522;SDS011;63165;43.016;25.784;2023-04-01T01:42:09;42.13;;;13.07;;
9522;SDS011;63165;43.016;25.784;2023-04-01T01:44:39;39.55;;;12.95;;
9522;SDS011;63165;43.016;25.784;2023-04-01T01:47:11;46.30;;;14.95;;
9522;SDS011;63165;43.016;25.784;2023-04-01T01:49:40;32.83;;;11.88;;
9522;SDS011;63165;43.016;25.784;2023-04-01T01:52:11;27.75;;;10.57;;
9522;SDS011;63165;43.016;25.784;2023-04-01T01:54:46;39.78;;;12.18;;
9522;SDS011;63165;43.016;25.784;2023-04-01T01:57:14;24.05;;;10.13;;
9522;SDS011;63165;43.016;25.784;2023-04-01T01:59:43;48.28;;;17.77;;
9522;SDS011;63165;43.016;25.784;2023-04-01T02:02:13;160.35;;;42.25;;
9522;SDS011;63165;43.016;25.784;2023-04-01T02:04:42;208.90;;;52.38;;
9522;SDS011;63165;43.016;25.784;2023-04-01T02:07:13;192.15;;;52.03;;
9522;SDS011;63165;43.016;25.784;2023-04-01T02:09:45;149.27;;;37.63;;
9522;SDS011;63165;43.016;25.784;2023-04-01T02:12:14;94.15;;;26.92;;
9522;SDS011;63165;43.016;25.784;2023-04-01T02:14:43;64.55;;;19.80;;
9522;SDS011;63165;43.016;25.784;2023-04-01T02:17:15;86.82;;;23.08;;
9522;SDS011;63165;43.016;25.784;2023-04-01T02:19:46;79.97;;;23.20;;
9522;SDS011;63165;43.016;25.784;2023-04-01T02:22:19;87.25;;;26.25;;
9522;SDS011;63165;43.016;25.784;2023-04-01T02:24:50;54.92;;;16.92;;
9522;SDS011;63165;43.016;25.784;2023-04-01T02:27:20;32.78;;;10.93;;
9522;SDS011;63165;43.016;25.784;2023-04-01T02:29:48;31.65;;;11.13;;
9522;SDS011;63165;43.016;25.784;2023-04-01T02:32:16;34.80;;;12.13;;
9522;SDS011;63165;43.016;25.784;2023-04-01T02:34:46;48.13;;;15.20;;
9522;SDS011;63165;43.016;25.784;2023-04-01T02:37:14;60.08;;;23.95;;
9522;SDS011;63165;43.016;25.784;2023-04-01T02:39:44;68.75;;;26.63;;
9522;SDS011;63165;43.016;25.784;2023-04-01T02:42:11;49.35;;;20.70;;
9522;SDS011;63165;43.016;25.784;2023-04-01T02:44:39;60.15;;;23.63;;
9522;SDS011;63165;43.016;25.784;2023-04-01T02:47:07;40.92;;;13.90;;
9522;SDS011;63165;43.016;25.784;2023-04-01T02:49:34;50.30;;;19.42;;
9522;SDS011;63165;43.016;25.784;2023-04-01T02:52:01;77.32;;;27.73;;
9522;SDS011;63165;43.016;25.784;2023-04-01T02:54:29;135.20;;;48.28;;
9522;SDS011;63165;43.016;25.784;2023-04-01T02:56:58;94.45;;;34.80;;
9522;SDS011;63165;43.016;25.784;2023-04-01T02:59:25;93.70;;;35.25;;
9522;SDS011;63165;43.016;25.784;2023-04-01T03:01:53;74.95;;;27.00;;
9522;SDS011;63165;43.016;25.784;2023-04-01T03:04:20;60.40;;;21.02;;
9522;SDS011;63165;43.016;25.784;2023-04-01T03:06:47;59.17;;;20.30;;
9522;SDS011;63165;43.016;25.784;2023-04-01T03:09:15;56.42;;;20.38;;
9522;SDS011;63165;43.016;25.784;2023-04-01T03:11:42;42.60;;;15.57;;
9522;SDS011;63165;43.016;25.784;2023-04-01T03:14:11;65.18;;;21.95;;
9522;SDS011;63165;43.016;25.784;2023-04-01T03:16:38;76.72;;;22.55;;
9522;SDS011;63165;43.016;25.784;2023-04-01T03:19:05;78.57;;;26.63;;
9522;SDS011;63165;43.016;25.784;2023-04-01T03:21:33;73.65;;;24.65;;
9522;SDS011;63165;43.016;25.784;2023-04-01T03:24:00;76.00;;;24.27;;
9522;SDS011;63165;43.016;25.784;2023-04-01T03:26:28;78.13;;;25.27;;
9522;SDS011;63165;43.016;25.784;2023-04-01T03:28:55;73.53;;;23.92;;
9522;SDS011;63165;43.016;25.784;2023-04-01T03:31:24;62.95;;;21.45;;
9522;SDS011;63165;43.016;25.784;2023-04-01T03:33:51;90.13;;;29.75;;
9522;SDS011;63165;43.016;25.784;2023-04-01T03:36:19;111.25;;;34.60;;
9522;SDS011;63165;43.016;25.784;2023-04-01T03:38:46;49.25;;;16.40;;
9522;SDS011;63165;43.016;25.784;2023-04-01T03:41:14;66.28;;;21.80;;
9522;SDS011;63165;43.016;25.784;2023-04-01T03:43:43;75.68;;;27.63;;
9522;SDS011;63165;43.016;25.784;2023-04-01T03:46:10;47.75;;;17.38;;
9522;SDS011;63165;43.016;25.784;2023-04-01T03:48:39;51.38;;;18.10;;
9522;SDS011;63165;43.016;25.784;2023-04-01T03:51:07;83.55;;;28.13;;
9522;SDS011;63165;43.016;25.784;2023-04-01T03:53:35;98.85;;;30.05;;
9522;SDS011;63165;43.016;25.784;2023-04-01T03:56:03;38.47;;;13.60;;
9522;SDS011;63165;43.016;25.784;2023-04-01T03:58:31;34.58;;;11.88;;
9522;SDS011;63165;43.016;25.784;2023-04-01T04:00:58;32.10;;;12.68;;
9522;SDS011;63165;43.016;25.784;2023-04-01T04:03:26;19.85;;;8.27;;
9522;SDS011;63165;43.016;25.784;2023-04-01T04:05:54;27.35;;;7.88;;
9522;SDS011;63165;43.016;25.784;2023-04-01T04:08:22;19.73;;;6.63;;
9522;SDS011;63165;43.016;25.784;2023-04-01T04:10:54;24.85;;;8.73;;
9522;SDS011;63165;43.016;25.784;2023-04-01T04:13:21;17.85;;;7.15;;
9522;SDS011;63165;43.016;25.784;2023-04-01T04:15:49;19.92;;;6.88;;
9522;SDS011;63165;43.016;25.784;2023-04-01T04:18:16;74.68;;;19.63;;
9522;SDS011;63165;43.016;25.784;2023-04-01T04:20:43;96.65;;;29.92;;
9522;SDS011;63165;43.016;25.784;2023-04-01T04:23:15;55.40;;;18.10;;
9522;SDS011;63165;43.016;25.784;2023-04-01T04:25:52;51.03;;;18.75;;
9522;SDS011;63165;43.016;25.784;2023-04-01T04:28:20;42.90;;;14.02;;
9522;SDS011;63165;43.016;25.784;2023-04-01T04:30:48;77.95;;;23.48;;
9522;SDS011;63165;43.016;25.784;2023-04-01T04:33:15;67.80;;;22.08;;
9522;SDS011;63165;43.016;25.784;2023-04-01T04:35:43;67.80;;;20.45;;
9522;SDS011;63165;43.016;25.784;2023-04-01T04:38:10;64.93;;;21.80;;
9522;SDS011;63165;43.016;25.784;2023-04-01T04:40:39;71.57;;;23.45;;
9522;SDS011;63165;43.016;25.784;2023-04-01T04:43:07;71.18;;;24.27;;
9522;SDS011;63165;43.016;25.784;2023-04-01T04:45:37;74.07;;;25.42;;
9522;SDS011;63165;43.016;25.784;2023-04-01T04:48:04;92.55;;;27.60;;
9522;SDS011;63165;43.016;25.784;2023-04-01T04:50:33;80.18;;;24.45;;
9522;SDS011;63165;43.016;25.784;2023-04-01T04:53:01;119.22;;;36.17;;
9522;SDS011;63165;43.016;25.784;2023-04-01T04:55:28;166.77;;;49.30;;
9522;SDS011;63165;43.016;25.784;2023-04-01T04:57:57;143.23;;;44.90;;
9522;SDS011;63165;43.016;25.784;2023-04-01T05:00:24;84.60;;;30.00;;
9522;SDS011;63165;43.016;25.784;2023-04-01T05:02:51;62.53;;;20.58;;
9522;SDS011;63165;43.016;25.784;2023-04-01T05:05:19;79.57;;;28.05;;
9522;SDS011;63165;43.016;25.784;2023-04-01T05:07:46;124.05;;;42.53;;
9522;SDS011;63165;43.016;25.784;2023-04-01T05:10:13;116.28;;;35.33;;
9522;SDS011;63165;43.016;25.784;2023-04-01T05:12:41;106.00;;;34.67;;
9522;SDS011;63165;43.016;25.784;2023-04-01T05:15:10;103.40;;;35.67;;
9522;SDS011;63165;43.016;25.784;2023-04-01T05:17:37;75.45;;;28.08;;
9522;SDS011;63165;43.016;25.784;2023-04-01T05:20:06;85.50;;;32.75;;
9522;SDS011;63165;43.016;25.784;2023-04-01T05:22:34;88.88;;;29.70;;
9522;SDS011;63165;43.016;25.784;2023-04-01T05:25:02;93.95;;;30.20;;
9522;SDS011;63165;43.016;25.784;2023-04-01T05:27:30;186.15;;;61.40;;
9522;SDS011;63165;43.016;25.784;2023-04-01T05:29:58;100.82;;;35.95;;
9522;SDS011;63165;43.016;25.784;2023-04-01T05:32:27;88.20;;;32.50;;
9522;SDS011;63165;43.016;25.784;2023-04-01T05:34:54;74.05;;;26.98;;
9522;SDS011;63165;43.016;25.784;2023-04-01T05:37:21;95.55;;;33.72;;
9522;SDS011;63165;43.016;25.784;2023-04-01T05:39:49;95.00;;;31.90;;
9522;SDS011;63165;43.016;25.784;2023-04-01T05:42:16;257.35;;;62.35;;
9522;SDS011;63165;43.016;25.784;2023-04-01T05:44:43;48.70;;;18.30;;
9522;SDS011;63165;43.016;25.784;2023-04-01T05:47:10;52.30;;;20.13;;
9522;SDS011;63165;43.016;25.784;2023-04-01T05:49:39;97.22;;;29.95;;
9522;SDS011;63165;43.016;25.784;2023-04-01T05:52:07;30.55;;;13.98;;
9522;SDS011;63165;43.016;25.784;2023-04-01T05:54:35;36.83;;;14.50;;
9522;SDS011;63165;43.016;25.784;2023-04-01T05:57:02;39.72;;;14.85;;
9522;SDS011;63165;43.016;25.784;2023-04-01T05:59:29;50.05;;;19.15;;
9522;SDS011;63165;43.016;25.784;2023-04-01T06:01:57;33.53;;;15.38;;
9522;SDS011;63165;43.016;25.784;2023-04-01T06:04:26;35.15;;;15.00;;
9522;SDS011;63165;43.016;25.784;2023-04-01T06:06:59;40.05;;;16.30;;
9522;SDS011;63165;43.016;25.784;2023-04-01T06:09:27;36.65;;;14.95;;
9522;SDS011;63165;43.016;25.784;2023-04-01T06:12:03;44.28;;;17.92;;
9522;SDS011;63165;43.016;25.784;2023-04-01T06:14:47;32.28;;;12.98;;
9522;SDS011;63165;43.016;25.784;2023-04-01T06:17:26;49.88;;;18.88;;
9522;SDS011;63165;43.016;25.784;2023-04-01T06:20:03;82.22;;;27.52;;
9522;SDS011;63165;43.016;25.784;2023-04-01T06:22:46;88.47;;;28.63;;
9522;SDS011;63165;43.016;25.784;2023-04-01T06:25:31;48.38;;;16.38;;
9522;SDS011;63165;43.016;25.784;2023-04-01T06:28:29;41.80;;;14.05;;
9522;SDS011;63165;43.016;25.784;2023-04-01T06:31:20;68.78;;;23.85;;
9522;SDS011;63165;43.016;25.784;2023-04-01T06:34:03;72.10;;;27.58;;
9522;SDS011;63165;43.016;25.784;2023-04-01T06:36:47;61.65;;;22.20;;
9522;SDS011;63165;43.016;25.784;2023-04-01T06:39:30;46.43;;;17.33;;
9522;SDS011;63165;43.016;25.784;2023-04-01T06:42:14;49.08;;;18.83;;
9522;SDS011;63165;43.016;25.784;2023-04-01T06:44:52;66.05;;;18.45;;
9522;SDS011;63165;43.016;25.784;2023-04-01T06:47:30;64.82;;;21.10;;
9522;SDS011;63165;43.016;25.784;2023-04-01T06:50:07;65.40;;;20.60;;
9522;SDS011;63165;43.016;25.784;2023-04-01T06:52:47;80.72;;;27.83;;
9522;SDS011;63165;43.016;25.784;2023-04-01T06:55:26;65.53;;;23.08;;
9522;SDS011;63165;43.016;25.784;2023-04-01T06:57:58;57.15;;;21.95;;
9522;SDS011;63165;43.016;25.784;2023-04-01T07:00:30;42.60;;;16.48;;
9522;SDS011;63165;43.016;25.784;2023-04-01T07:03:02;44.13;;;16.17;;
9522;SDS011;63165;43.016;25.784;2023-04-01T07:05:36;50.00;;;18.63;;
9522;SDS011;63165;43.016;25.784;2023-04-01T07:08:04;46.30;;;16.83;;
9522;SDS011;63165;43.016;25.784;2023-04-01T07:10:41;44.60;;;15.05;;
9522;SDS011;63165;43.016;25.784;2023-04-01T07:13:13;29.48;;;11.82;;
9522;SDS011;63165;43.016;25.784;2023-04-01T07:15:50;41.17;;;15.10;;
9522;SDS011;63165;43.016;25.784;2023-04-01T07:18:25;25.65;;;10.60;;
9522;SDS011;63165;43.016;25.784;2023-04-01T07:20:58;29.27;;;13.13;;
9522;SDS011;63165;43.016;25.784;2023-04-01T07:23:28;30.70;;;11.38;;
9522;SDS011;63165;43.016;25.784;2023-04-01T07:26:00;29.15;;;11.43;;
9522;SDS011;63165;43.016;25.784;2023-04-01T07:28:33;20.17;;;7.70;;
9522;SDS011;63165;43.016;25.784;2023-04-01T07:31:03;20.25;;;9.25;;
9522;SDS011;63165;43.016;25.784;2023-04-01T07:33:43;40.28;;;9.82;;
9522;SDS011;63165;43.016;25.784;2023-04-01T07:36:18;22.63;;;7.20;;
9522;SDS011;63165;43.016;25.784;2023-04-01T07:38:55;35.47;;;9.18;;
9522;SDS011;63165;43.016;25.784;2023-04-01T07:41:36;28.98;;;7.60;;
9522;SDS011;63165;43.016;25.784;2023-04-01T07:44:16;41.05;;;15.10;;
9522;SDS011;63165;43.016;25.784;2023-04-01T07:47:01;32.05;;;13.18;;
9522;SDS011;63165;43.016;25.784;2023-04-01T07:49:42;39.88;;;11.85;;
9522;SDS011;63165;43.016;25.784;2023-04-01T07:52:18;35.33;;;12.52;;
9522;SDS011;63165;43.016;25.784;2023-04-01T07:54:53;32.40;;;11.43;;
9522;SDS011;63165;43.016;25.784;2023-04-01T07:57:30;31.05;;;12.25;;
9522;SDS011;63165;43.016;25.784;2023-04-01T08:00:06;40.13;;;11.88;;
9522;SDS011;63165;43.016;25.784;2023-04-01T08:02:46;20.63;;;8.55;;
9522;SDS011;63165;43.016;25.784;2023-04-01T08:05:25;29.20;;;9.98;;
9522;SDS011;63165;43.016;25.784;2023-04-01T08:07:57;15.75;;;6.53;;
9522;SDS011;63165;43.016;25.784;2023-04-01T08:10:35;17.92;;;6.63;;
9522;SDS011;63165;43.016;25.784;2023-04-01T08:13:11;20.30;;;6.00;;
9522;SDS011;63165;43.016;25.784;2023-04-01T08:15:52;13.43;;;4.80;;
9522;SDS011;63165;43.016;25.784;2023-04-01T08:18:28;12.57;;;5.05;;
9522;SDS011;63165;43.016;25.784;2023-04-01T08:21:05;11.70;;;4.40;;
9522;SDS011;63165;43.016;25.784;2023-04-01T08:23:38;12.98;;;4.60;;
9522;SDS011;63165;43.016;25.784;2023-04-01T08:26:10;11.40;;;4.13;;
9522;SDS011;63165;43.016;25.784;2023-04-01T08:28:49;16.63;;;4.10;;
9522;SDS011;63165;43.016;25.784;2023-04-01T08:31:22;10.75;;;3.83;;
9522;SDS011;63165;43.016;25.784;2023-04-01T08:33:56;11.15;;;3.15;;
9522;SDS011;63165;43.016;25.784;2023-04-01T08:36:24;12.05;;;4.38;;
9522;SDS011;63165;43.016;25.784;2023-04-01T08:38:57;6.53;;;2.75;;
9522;SDS011;63165;43.016;25.784;2023-04-01T08:41:48;7.72;;;3.03;;
9522;SDS011;63165;43.016;25.784;2023-04-01T08:47:50;9.52;;;2.80;;
9522;SDS011;63165;43.016;25.784;2023-04-01T08:50:39;12.27;;;2.78;;
9522;SDS011;63165;43.016;25.784;2023-04-01T08:53:36;8.75;;;3.40;;
9522;SDS011;63165;43.016;25.784;2023-04-01T08:56:17;9.20;;;2.67;;
9522;SDS011;63165;43.016;25.784;2023-04-01T08:59:02;7.65;;;2.28;;
9522;SDS011;63165;43.016;25.784;2023-04-01T09:01:55;8.95;;;2.90;;
9522;SDS011;63165;43.016;25.784;2023-04-01T09:04:45;9.73;;;2.33;;
9522;SDS011;63165;43.016;25.784;2023-04-01T09:07:40;7.90;;;2.28;;
9522;SDS011;63165;43.016;25.784;2023-04-01T09:13:17;12.93;;;2.75;;
9522;SDS011;63165;43.016;25.784;2023-04-01T09:21:57;8.82;;;2.78;;
9522;SDS011;63165;43.016;25.784;2023-04-01T09:27:40;10.50;;;2.30;;
9522;SDS011;63165;43.016;25.784;2023-04-01T09:30:29;5.78;;;2.30;;
9522;SDS011;63165;43.016;25.784;2023-04-01T09:36:02;7.72;;;2.10;;
9522;SDS011;63165;43.016;25.784;2023-04-01T09:38:37;6.05;;;2.13;;
9522;SDS011;63165;43.016;25.784;2023-04-01T09:41:15;8.23;;;2.45;;
9522;SDS011;63165;43.016;25.784;2023-04-01T09:43:58;9.80;;;2.78;;
9522;SDS011;63165;43.016;25.784;2023-04-01T09:51:48;14.63;;;3.50;;
9522;SDS011;63165;43.016;25.784;2023-04-01T09:54:27;12.00;;;3.50;;
9522;SDS011;63165;43.016;25.784;2023-04-01T09:57:15;11.40;;;2.92;;
9522;SDS011;63165;43.016;25.784;2023-04-01T10:00:02;9.13;;;2.28;;
9522;SDS011;63165;43.016;25.784;2023-04-01T10:02:52;8.85;;;2.53;;
9522;SDS011;63165;43.016;25.784;2023-04-01T10:05:59;8.95;;;2.85;;
9522;SDS011;63165;43.016;25.784;2023-04-01T10:18:34;13.27;;;4.18;;
9522;SDS011;63165;43.016;25.784;2023-04-01T10:21:28;13.80;;;2.95;;
9522;SDS011;63165;43.016;25.784;2023-04-01T10:24:18;8.35;;;2.28;;
9522;SDS011;63165;43.016;25.784;2023-04-01T10:27:11;5.90;;;2.40;;
9522;SDS011;63165;43.016;25.784;2023-04-01T10:33:10;11.15;;;2.50;;
9522;SDS011;63165;43.016;25.784;2023-04-01T10:36:05;8.35;;;2.45;;
9522;SDS011;63165;43.016;25.784;2023-04-01T10:39:03;15.60;;;2.67;;
9522;SDS011;63165;43.016;25.784;2023-04-01T10:48:25;8.75;;;2.30;;
9522;SDS011;63165;43.016;25.784;2023-04-01T10:51:20;9.90;;;2.50;;
9522;SDS011;63165;43.016;25.784;2023-04-01T10:54:21;9.02;;;2.60;;
9522;SDS011;63165;43.016;25.784;2023-04-01T10:57:10;5.63;;;2.40;;
9522;SDS011;63165;43.016;25.784;2023-04-01T11:00:08;13.32;;;2.28;;
9522;SDS011;63165;43.016;25.784;2023-04-01T11:12:48;16.45;;;3.25;;
9522;SDS011;63165;43.016;25.784;2023-04-01T11:18:54;8.18;;;2.72;;
9522;SDS011;63165;43.016;25.784;2023-04-01T11:21:54;5.38;;;1.80;;
9522;SDS011;63165;43.016;25.784;2023-04-01T11:25:00;9.52;;;2.47;;
9522;SDS011;63165;43.016;25.784;2023-04-01T11:30:52;9.60;;;2.45;;
9522;SDS011;63165;43.016;25.784;2023-04-01T11:33:33;12.00;;;2.40;;
9522;SDS011;63165;43.016;25.784;2023-04-01T11:36:10;15.75;;;2.83;;
9522;SDS011;63165;43.016;25.784;2023-04-01T11:41:33;11.45;;;2.60;;
9522;SDS011;63165;43.016;25.784;2023-04-01T11:44:19;15.70;;;3.75;;
9522;SDS011;63165;43.016;25.784;2023-04-01T11:49:53;8.20;;;2.40;;
9522;SDS011;63165;43.016;25.784;2023-04-01T11:52:37;9.35;;;2.88;;
9522;SDS011;63165;43.016;25.784;2023-04-01T11:55:24;15.65;;;3.28;;
9522;SDS011;63165;43.016;25.784;2023-04-01T11:58:06;15.05;;;2.95;;
9522;SDS011;63165;43.016;25.784;2023-04-01T12:06:52;13.13;;;3.60;;
9522;SDS011;63165;43.016;25.784;2023-04-01T12:09:30;19.48;;;4.63;;
9522;SDS011;63165;43.016;25.784;2023-04-01T12:12:09;13.60;;;3.45;;
9522;SDS011;63165;43.016;25.784;2023-04-01T12:14:44;16.13;;;3.25;;
9522;SDS011;63165;43.016;25.784;2023-04-01T12:17:27;16.33;;;4.00;;
9522;SDS011;63165;43.016;25.784;2023-04-01T12:23:01;15.13;;;3.63;;
9522;SDS011;63165;43.016;25.784;2023-04-01T12:25:52;16.75;;;4.20;;
9522;SDS011;63165;43.016;25.784;2023-04-01T12:28:45;14.20;;;3.55;;
9522;SDS011;63165;43.016;25.784;2023-04-01T12:31:27;8.43;;;3.35;;
9522;SDS011;63165;43.016;25.784;2023-04-01T12:37:03;20.88;;;4.35;;
9522;SDS011;63165;43.016;25.784;2023-04-01T12:39:44;19.67;;;3.83;;
9522;SDS011;63165;43.016;25.784;2023-04-01T12:42:28;12.30;;;3.63;;
9522;SDS011;63165;43.016;25.784;2023-04-01T12:45:21;21.17;;;4.10;;
9522;SDS011;63165;43.016;25.784;2023-04-01T12:51:25;15.63;;;3.90;;
9522;SDS011;63165;43.016;25.784;2023-04-01T12:54:16;18.08;;;4.05;;
9522;SDS011;63165;43.016;25.784;2023-04-01T12:56:54;17.90;;;3.63;;
9522;SDS011;63165;43.016;25.784;2023-04-01T12:59:36;13.75;;;4.00;;
9522;SDS011;63165;43.016;25.784;2023-04-01T13:02:19;15.50;;;3.97;;
9522;SDS011;63165;43.016;25.784;2023-04-01T13:05:20;17.08;;;4.15;;
9522;SDS011;63165;43.016;25.784;2023-04-01T13:10:53;15.00;;;4.45;;
9522;SDS011;63165;43.016;25.784;2023-04-01T13:13:38;15.82;;;4.18;;
9522;SDS011;63165;43.016;25.784;2023-04-01T13:16:20;14.02;;;3.72;;
9522;SDS011;63165;43.016;25.784;2023-04-01T13:18:54;21.20;;;4.07;;
9522;SDS011;63165;43.016;25.784;2023-04-01T13:21:31;20.40;;;3.92;;
9522;SDS011;63165;43.016;25.784;2023-04-01T13:24:09;16.73;;;4.40;;
9522;SDS011;63165;43.016;25.784;2023-04-01T13:26:46;20.30;;;4.47;;
9522;SDS011;63165;43.016;25.784;2023-04-01T13:29:23;16.02;;;4.60;;
9522;SDS011;63165;43.016;25.784;2023-04-01T13:32:03;16.65;;;4.85;;
9522;SDS011;63165;43.016;25.784;2023-04-01T13:34:45;19.70;;;4.47;;
9522;SDS011;63165;43.016;25.784;2023-04-01T13:37:25;18.17;;;5.63;;
9522;SDS011;63165;43.016;25.784;2023-04-01T13:42:56;23.27;;;4.95;;
9522;SDS011;63165;43.016;25.784;2023-04-01T13:45:29;15.02;;;4.47;;
9522;SDS011;63165;43.016;25.784;2023-04-01T13:54:11;21.58;;;4.45;;
9522;SDS011;63165;43.016;25.784;2023-04-01T13:57:00;14.80;;;4.25;;
9522;SDS011;63165;43.016;25.784;2023-04-01T14:02:47;28.20;;;4.80;;
9522;SDS011;63165;43.016;25.784;2023-04-01T14:05:35;17.08;;;4.50;;
9522;SDS011;63165;43.016;25.784;2023-04-01T14:08:17;21.83;;;4.55;;
9522;SDS011;63165;43.016;25.784;2023-04-01T14:10:55;20.85;;;4.75;;
9522;SDS011;63165;43.016;25.784;2023-04-01T14:13:37;21.25;;;4.43;;
9522;SDS011;63165;43.016;25.784;2023-04-01T14:16:18;13.25;;;4.00;;
9522;SDS011;63165;43.016;25.784;2023-04-01T14:22:04;22.85;;;4.28;;
9522;SDS011;63165;43.016;25.784;2023-04-01T14:24:46;26.88;;;4.90;;
9522;SDS011;63165;43.016;25.784;2023-04-01T14:27:26;19.90;;;4.38;;
9522;SDS011;63165;43.016;25.784;2023-04-01T14:30:27;23.73;;;5.47;;
9522;SDS011;63165;43.016;25.784;2023-04-01T14:33:05;25.30;;;5.78;;
9522;SDS011;63165;43.016;25.784;2023-04-01T14:35:38;18.63;;;4.40;;
9522;SDS011;63165;43.016;25.784;2023-04-01T14:41:11;21.38;;;4.43;;
9522;SDS011;63165;43.016;25.784;2023-04-01T14:44:00;24.23;;;4.95;;
9522;SDS011;63165;43.016;25.784;2023-04-01T14:46:58;19.45;;;4.38;;
9522;SDS011;63165;43.016;25.784;2023-04-01T14:49:49;23.02;;;5.88;;
9522;SDS011;63165;43.016;25.784;2023-04-01T14:52:23;22.48;;;5.50;;
9522;SDS011;63165;43.016;25.784;2023-04-01T14:54:54;21.33;;;4.82;;
9522;SDS011;63165;43.016;25.784;2023-04-01T14:57:23;20.23;;;4.60;;
9522;SDS011;63165;43.016;25.784;2023-04-01T14:59:53;12.88;;;3.72;;
9522;SDS011;63165;43.016;25.784;2023-04-01T15:05:30;20.38;;;5.45;;
9522;SDS011;63165;43.016;25.784;2023-04-01T15:08:09;24.90;;;4.25;;
9522;SDS011;63165;43.016;25.784;2023-04-01T15:10:57;29.73;;;5.70;;
9522;SDS011;63165;43.016;25.784;2023-04-01T15:13:46;56.10;;;7.50;;
9522;SDS011;63165;43.016;25.784;2023-04-01T15:16:27;37.35;;;7.82;;
9522;SDS011;63165;43.016;25.784;2023-04-01T15:19:23;47.17;;;8.15;;
9522;SDS011;63165;43.016;25.784;2023-04-01T15:25:18;20.30;;;6.78;;
9522;SDS011;63165;43.016;25.784;2023-04-01T15:27:58;45.97;;;14.20;;
9522;SDS011;63165;43.016;25.784;2023-04-01T15:30:33;17.77;;;6.88;;
9522;SDS011;63165;43.016;25.784;2023-04-01T15:35:48;23.25;;;7.70;;
9522;SDS011;63165;43.016;25.784;2023-04-01T15:38:29;21.27;;;5.68;;
9522;SDS011;63165;43.016;25.784;2023-04-01T15:41:05;14.25;;;4.60;;
9522;SDS011;63165;43.016;25.784;2023-04-01T15:43:41;13.70;;;4.50;;
9522;SDS011;63165;43.016;25.784;2023-04-01T15:49:10;20.73;;;7.50;;
9522;SDS011;63165;43.016;25.784;2023-04-01T15:51:48;15.80;;;5.22;;
9522;SDS011;63165;43.016;25.784;2023-04-01T15:54:38;24.10;;;6.65;;
9522;SDS011;63165;43.016;25.784;2023-04-01T15:57:27;15.55;;;7.38;;
9522;SDS011;63165;43.016;25.784;2023-04-01T16:00:10;19.17;;;7.78;;
9522;SDS011;63165;43.016;25.784;2023-04-01T16:02:47;16.27;;;4.93;;
9522;SDS011;63165;43.016;25.784;2023-04-01T16:08:21;17.45;;;6.82;;
9522;SDS011;63165;43.016;25.784;2023-04-01T16:13:45;14.45;;;4.72;;
9522;SDS011;63165;43.016;25.784;2023-04-01T16:16:25;9.20;;;3.08;;
9522;SDS011;63165;43.016;25.784;2023-04-01T16:19:15;15.40;;;5.00;;
9522;SDS011;63165;43.016;25.784;2023-04-01T16:21:54;11.05;;;4.05;;
9522;SDS011;63165;43.016;25.784;2023-04-01T16:24:31;11.23;;;4.10;;
9522;SDS011;63165;43.016;25.784;2023-04-01T16:29:35;11.43;;;4.30;;
9522;SDS011;63165;43.016;25.784;2023-04-01T16:32:17;10.68;;;3.95;;
9522;SDS011;63165;43.016;25.784;2023-04-01T16:34:57;6.93;;;3.00;;
9522;SDS011;63165;43.016;25.784;2023-04-01T16:37:39;20.33;;;6.15;;
9522;SDS011;63165;43.016;25.784;2023-04-01T16:40:16;13.45;;;5.25;;
9522;SDS011;63165;43.016;25.784;2023-04-01T16:42:52;15.43;;;4.97;;
9522;SDS011;63165;43.016;25.784;2023-04-01T16:45:29;15.82;;;5.80;;
9522;SDS011;63165;43.016;25.784;2023-04-01T16:48:06;8.07;;;3.67;;
9522;SDS011;63165;43.016;25.784;2023-04-01T16:50:48;15.10;;;5.82;;
9522;SDS011;63165;43.016;25.784;2023-04-01T16:53:25;13.20;;;6.07;;
9522;SDS011;63165;43.016;25.784;2023-04-01T16:56:04;16.13;;;5.85;;
9522;SDS011;63165;43.016;25.784;2023-04-01T16:58:39;14.90;;;5.47;;
9522;SDS011;63165;43.016;25.784;2023-04-01T17:01:13;15.50;;;6.75;;
9522;SDS011;63165;43.016;25.784;2023-04-01T17:03:49;27.73;;;12.02;;
9522;SDS011;63165;43.016;25.784;2023-04-01T17:06:23;18.33;;;7.53;;
9522;SDS011;63165;43.016;25.784;2023-04-01T17:09:01;16.80;;;7.40;;
9522;SDS011;63165;43.016;25.784;2023-04-01T17:11:44;17.92;;;7.90;;
9522;SDS011;63165;43.016;25.784;2023-04-01T17:14:18;18.30;;;8.07;;
9522;SDS011;63165;43.016;25.784;2023-04-01T17:16:55;20.55;;;8.23;;
9522;SDS011;63165;43.016;25.784;2023-04-01T17:19:42;17.90;;;7.20;;
9522;SDS011;63165;43.016;25.784;2023-04-01T17:22:21;21.30;;;8.30;;
9522;SDS011;63165;43.016;25.784;2023-04-01T17:24:59;21.50;;;9.48;;
9522;SDS011;63165;43.016;25.784;2023-04-01T17:27:40;28.58;;;11.45;;